• Join FlightAware (Why Join?)
  • Login
  • US Flag 
04:41AM EDT


 

Airport Tracker/Info


-or-


 

Live Flight TrackerFlight Track Log ✈ SWA3247 ✈ 01-Jul-2013 ✈ KLAS - KALB

Flight Track Log - Related Links

Times and Time Zones

All times are in EDT time to prevent confusion due to time zone crossing. See the SWA3247 flight status page for this flight to view local times or setup timezone preferences in your user account.

Time Position Orientation Groundspeed Altitude Reporting Facility
EDT Latitude Longitude Course Direction KTS MPH feet Rate Location/Type
08:38PM 36.0770 -115.1700 272° West 181 208 3,000  Level FlightAware
08:39PM 36.0770 -115.2040 270° West 198 228 4,000 1,440 Climbing FlightAware
08:39PM 36.0770 -115.2380 270° West 231 266 4,400 1,260 Climbing FlightAware
08:40PM 36.0840 -115.2730 284° West 250 288 5,200 1,980 Climbing FlightAware
08:40PM 36.1010 -115.2880 325° Northwest 262 302 5,900 2,520 Climbing FlightAware
08:41PM 36.1320 -115.2950 350° North 259 298 7,000 2,640 Climbing FlightAware
08:41PM 36.1610 -115.2770 27° Northeast 256 295 8,300 2,580 Climbing FlightAware
08:41PM 36.1700 -115.2560 62° Northeast 253 291 8,900 1,620 Climbing FlightAware
08:42PM 36.1850 -115.2190 63° Northeast 280 322 9,500 1,560 Climbing FlightAware
08:42PM 36.1960 -115.1540 78° East 304 350 10,700 1,380 Climbing FlightAware
08:43PM 36.1970 -115.0730 89° East 353 406 11,400 1,620 Climbing FlightAware
08:44PM 36.1980 -114.9830 89° East 366 421 13,100 2,280 Climbing FlightAware
08:45PM 36.1990 -114.8950 89° East 374 430 14,700 2,400 Climbing FlightAware
08:45PM 36.2000 -114.8070 89° East 379 436 16,400 2,520 Climbing FlightAware
08:46PM 36.2000 -114.7100 90° East 382 440 18,300 2,340 Climbing FlightAware
08:47PM 36.1980 -114.6210 92° East 389 448 19,800 2,100 Climbing FlightAware
08:47PM 36.2030 -114.5340 86° East 396 456 21,200 1,980 Climbing FlightAware
08:48PM 36.2310 -114.4370 70° East 409 471 22,600 1,860 Climbing FlightAware
08:49PM 36.2620 -114.3470 67° East 416 479 23,900 1,860 Climbing FlightAware
08:49PM 36.3060 -114.2570 59° Northeast 418 481 25,300 1,740 Climbing FlightAware
08:50PM 36.3460 -114.1750 59° Northeast 425 489 26,400 1,500 Climbing FlightAware
08:51PM 36.3900 -114.0840 59° Northeast 434 499 27,400 1,380 Climbing FlightAware
08:52PM 36.4330 -113.9950 59° Northeast 440 506 28,400 1,440 Climbing FlightAware
08:52PM 36.4760 -113.9070 59° Northeast 446 513 29,400 1,380 Climbing FlightAware
08:53PM 36.5250 -113.8100 58° Northeast 450 518 30,400 1,320 Climbing FlightAware
08:54PM 36.5700 -113.7190 58° Northeast 453 521 31,300 1,320 Climbing FlightAware
08:54PM 36.6160 -113.6200 60° Northeast 453 521 32,300 1,320 Climbing FlightAware
08:55PM 36.6440 -113.5230 70° East 454 522 33,200 1,320 Climbing FlightAware
08:56PM 36.6730 -113.4190 71° East 455 524 34,200 1,380 Climbing FlightAware
08:56PM 36.7020 -113.3110 71° East 452 520 35,200 1,440 Climbing FlightAware
08:57PM 36.7300 -113.2100 71° East 447 514 36,200 1,260 Climbing FlightAware
08:58PM 36.7590 -113.1040 71° East 443 510 37,000 540 Climbing FlightAware
08:59PM 36.7840 -113.0120 71° East 444 511 37,000  Level FlightAware
08:59PM 36.8100 -112.9170 71° East 445 512 37,000  Level FlightAware
09:00PM 36.8370 -112.8150 72° East 444 511 37,000  Level FlightAware
09:01PM 36.8660 -112.7060 72° East 441 507 37,000  Level FlightAware
09:01PM 36.8930 -112.6070 71° East 440 506 37,000  Level FlightAware
09:02PM 36.9220 -112.5000 71° East 438 504 37,000  Level FlightAware
09:03PM 36.9430 -112.4180 72° East 439 505 37,000  Level FlightAware
09:03PM 36.9720 -112.3120 71° East 439 505 37,000  Level FlightAware
09:04PM 36.9980 -112.2130 72° East 438 504 37,000  Level FlightAware
09:05PM 37.0210 -112.1260 72° East 440 506 37,000  Level FlightAware
09:05PM 37.0580 -112.0390 62° Northeast 436 502 37,000  Level FlightAware
09:06PM 37.1030 -111.9490 58° Northeast 437 503 37,000  Level FlightAware
09:07PM 37.1440 -111.8720 56° Northeast 437 503 37,000  Level FlightAware
09:07PM 37.1960 -111.7740 56° Northeast 437 503 37,000  Level FlightAware
09:08PM 37.2420 -111.6880 56° Northeast 437 503 37,000  Level FlightAware
09:09PM 37.2760 -111.6240 56° Northeast 437 503 37,000  Level FlightAware
09:10PM 37.3220 -111.5380 56° Northeast 437 503 37,000  Level FlightAware
09:10PM 37.3570 -111.4730 56° Northeast 437 503 37,000  Level FlightAware
09:11PM 37.4030 -111.3870 56° Northeast 437 503 37,000  Level FlightAware
09:12PM 37.4380 -111.3220 56° Northeast 437 503 37,000  Level FlightAware
09:12PM 37.4720 -111.2580 56° Northeast 437 503 37,000  Level FlightAware
09:13PM 37.5090 -111.1900 56° Northeast 437 503 37,000  Level FlightAware
09:14PM 37.5550 -111.1030 56° Northeast 437 503 37,000  Level FlightAware
09:15PM 37.6260 -110.9700 56° Northeast 437 503 37,000  Level FlightAware
09:16PM 37.6610 -110.9050 56° Northeast 437 503 37,000  Level FlightAware
09:16PM 37.7070 -110.8190 56° Northeast 437 503 37,000  Level FlightAware
09:17PM 37.6670 -110.5150 99° East 37,000  Level FlightAware
09:17PM 37.6830 -110.4610 69° East 443 510 37,000  Level FlightAware
09:18PM 37.7110 -110.3650 70° East 442 509 37,000  Level FlightAware
09:18PM 37.7390 -110.2720 69° East 441 507 37,000  Level FlightAware
09:19PM 37.7660 -110.1790 70° East 442 509 37,000  Level FlightAware
09:20PM 37.7950 -110.0800 70° East 443 510 37,000  Level FlightAware
09:20PM 37.8270 -109.9710 70° East 445 512 37,000  Level FlightAware
09:21PM 37.8540 -109.8770 70° East 443 510 37,000  Level FlightAware
09:22PM 37.8830 -109.7770 70° East 443 510 37,000  Level FlightAware
09:22PM 37.9160 -109.6630 70° East 443 510 37,000  Level FlightAware
09:23PM 37.9410 -109.5760 70° East 443 510 37,000  Level FlightAware
09:24PM 37.9690 -109.4790 70° East 443 510 37,000  Level FlightAware
09:24PM 37.9960 -109.3850 70° East 440 506 37,000  Level FlightAware
09:25PM 38.0280 -109.2720 70° East 440 506 37,000  Level FlightAware
09:26PM 38.0490 -109.1960 71° East 440 506 37,000  Level FlightAware
09:26PM 38.0880 -109.0620 70° East 438 504 37,000  Level FlightAware
09:27PM 38.1270 -108.9220 70° East 435 501 37,000  Level FlightAware
09:28PM 38.1520 -108.8310 71° East 435 501 37,000  Level FlightAware
09:29PM 38.1840 -108.7180 70° East 438 504 37,000  Level FlightAware
09:30PM 38.2190 -108.5910 71° East 439 505 37,000  Level FlightAware
09:30PM 38.2460 -108.4950 70° East 440 506 37,000  Level FlightAware
09:31PM 38.2680 -108.4150 71° East 440 506 37,000  Level FlightAware
09:32PM 38.2990 -108.3020 71° East 438 504 37,000  Level FlightAware
09:32PM 38.3280 -108.1970 71° East 438 504 37,000  Level FlightAware
09:33PM 38.3560 -108.1150 66° East 436 502 37,000  Level FlightAware
09:34PM 38.3900 -108.0180 66° East 432 497 37,000  Level FlightAware
09:34PM 38.4190 -107.9350 66° East 430 495 37,000  Level FlightAware
09:35PM 38.4600 -107.8150 66° East 427 491 37,000  Level FlightAware
09:36PM 38.4930 -107.7180 66° East 423 487 37,000  Level FlightAware
09:37PM 38.5370 -107.5840 67° East 421 484 37,000  Level FlightAware
09:37PM 38.5620 -107.5090 67° East 422 486 37,000  Level FlightAware
09:38PM 38.5880 -107.4210 69° East 425 489 37,000  Level FlightAware
09:39PM 38.6180 -107.3180 70° East 423 487 37,000  Level FlightAware
09:39PM 38.6470 -107.2180 70° East 423 487 37,000  Level FlightAware
09:40PM 38.6750 -107.1180 70° East 425 489 37,000  Level FlightAware
09:41PM 38.7040 -107.0160 70° East 426 490 37,000  Level FlightAware
09:42PM 38.7300 -106.9250 70° East 423 487 37,000  Level FlightAware
09:42PM 38.7570 -106.8290 70° East 425 489 37,000  Level FlightAware
09:43PM 38.7850 -106.7150 72° East 427 491 37,000  Level FlightAware
09:44PM 38.8130 -106.6100 71° East 429 494 37,000  Level FlightAware
09:44PM 38.8350 -106.5230 72° East 430 495 37,000  Level FlightAware
09:45PM 38.8690 -106.3860 72° East 427 491 37,000  Level FlightAware
09:46PM 38.8960 -106.2760 72° East 425 489 37,000  Level FlightAware
09:47PM 38.9150 -106.1990 72° East 425 489 37,000  Level FlightAware
09:47PM 38.9410 -106.0960 72° East 422 486 37,000  Level FlightAware
09:48PM 38.9640 -106.0020 73° East 421 484 37,000  Level FlightAware
09:49PM 38.9910 -105.8930 72° East 421 484 37,000  Level FlightAware
09:49PM 39.0170 -105.7870 72° East 420 483 37,000  Level FlightAware
09:50PM 39.0420 -105.6870 72° East 422 486 37,000  Level FlightAware
09:51PM 39.0650 -105.5920 73° East 421 484 37,000  Level FlightAware
09:51PM 39.0860 -105.5040 73° East 424 488 37,000  Level FlightAware
09:52PM 39.1110 -105.4020 72° East 429 494 37,000  Level FlightAware
09:53PM 39.1350 -105.3010 73° East 425 489 37,000  Level FlightAware
09:53PM 39.1560 -105.2150 72° East 419 482 37,000  Level FlightAware
09:54PM 39.1790 -105.1170 73° East 419 482 37,000  Level FlightAware
09:55PM 39.2040 -105.0140 73° East 418 481 37,000  Level FlightAware
09:55PM 39.2270 -104.9170 73° East 417 480 37,000  Level FlightAware
09:56PM 39.2510 -104.8140 73° East 419 482 37,000  Level FlightAware
09:57PM 39.2750 -104.7130 73° East 419 482 37,000  Level FlightAware
09:58PM 39.2970 -104.6160 74° East 419 482 37,000  Level FlightAware
09:58PM 39.3200 -104.5210 73° East 420 483 37,000  Level FlightAware
09:59PM 39.3410 -104.4300 73° East 420 483 37,000  Level FlightAware
10:00PM 39.3620 -104.3390 73° East 421 484 37,000  Level FlightAware
10:00PM 39.3850 -104.2380 74° East 421 484 37,000  Level FlightAware
10:01PM 39.4070 -104.1420 73° East 420 483 37,000  Level FlightAware
10:02PM 39.4290 -104.0450 74° East 418 481 37,000  Level FlightAware
10:02PM 39.4500 -103.9510 74° East 417 480 37,000  Level FlightAware
10:03PM 39.4740 -103.8460 73° East 414 476 37,000  Level FlightAware
10:04PM 39.4940 -103.7560 74° East 413 475 37,000  Level FlightAware
10:04PM 39.5190 -103.6470 73° East 412 474 37,000  Level FlightAware
10:05PM 39.5400 -103.5520 74° East 411 473 37,000  Level FlightAware
10:06PM 39.5650 -103.4410 74° East 411 473 37,000  Level FlightAware
10:06PM 39.5860 -103.3440 74° East 412 474 37,000  Level FlightAware
10:07PM 39.6120 -103.2240 74° East 412 474 37,000  Level FlightAware
10:08PM 39.6280 -103.1510 74° East 412 474 37,000  Level FlightAware
10:09PM 39.6500 -103.0540 74° East 412 474 37,000  Level FlightAware
10:09PM 39.6800 -102.9140 74° East 414 476 37,000  Level FlightAware
10:10PM 39.6970 -102.8350 74° East 414 476 37,000  Level FlightAware
10:11PM 39.7140 -102.7580 74° East 414 476 37,000  Level FlightAware
10:12PM 39.7520 -102.5760 75° East 415 478 37,000  Level FlightAware
10:13PM 39.7790 -102.4520 74° East 416 479 37,000  Level FlightAware
10:13PM 39.7960 -102.3780 73° East 416 479 37,000  Level FlightAware
10:14PM 39.8240 -102.2510 74° East 416 479 37,000  Level FlightAware
10:15PM 39.8400 -102.1760 74° East 416 479 37,000  Level FlightAware
10:16PM 39.8620 -102.0770 74° East 416 479 37,000  Level FlightAware
10:16PM 39.8780 -102.0030 74° East 416 479 37,000  Level FlightAware
10:17PM 39.9050 -101.8810 74° East 416 479 37,000  Level FlightAware
10:18PM 39.9210 -101.8070 74° East 416 479 37,000  Level FlightAware
10:19PM 39.9430 -101.7080 74° East 416 479 37,000  Level FlightAware
10:19PM 39.9590 -101.6340 74° East 416 479 37,000  Level FlightAware
10:20PM 39.9750 -101.5610 74° East 416 479 37,000  Level FlightAware
10:21PM 39.9970 -101.4620 74° East 416 479 37,000  Level FlightAware
10:22PM 40.0190 -101.3630 74° East 416 479 37,000 840 Level FlightAware
10:23PM 40.0819 -100.9628 74° East 420 483 39,000 780 Climbing Denver Center
10:24PM 40.1147 -100.7983 75° East 419 482 39,000  Level Denver Center
10:25PM 40.1425 -100.6572 76° East 420 483 39,000  Level Denver Center
10:26PM 40.1742 -100.4917 76° East 422 486 39,000  Level Denver Center
10:27PM 40.2011 -100.3503 76° East 422 486 39,000  Level Denver Center
10:28PM 40.2292 -100.2083 75° East 423 487 39,000  Level Denver Center
10:29PM 40.2600 -100.0431 76° East 421 484 39,000  Level Denver Center
10:30PM 40.2944 -99.8561 76° East 423 487 39,000  Level Denver Center
10:32PM 40.3222 -99.7064 76° East 424 488 39,000  Level Denver Center
10:33PM 40.3506 -99.5556 76° East 428 493 39,000  Level Denver Center
10:34PM 40.3775 -99.4064 77° East 423 487 39,000  Level Denver Center
10:39PM 40.5350 -98.5200 77° East 436 502 39,000  Level FlightAware
10:40PM 40.5490 -98.4410 77° East 436 502 39,000  Level FlightAware
10:41PM 40.5680 -98.3330 77° East 436 502 39,000  Level FlightAware
10:41PM 40.5920 -98.1930 77° East 440 506 39,000  Level FlightAware
10:42PM 40.6100 -98.0830 78° East 441 507 39,000  Level FlightAware
10:43PM 40.6260 -97.9900 77° East 441 507 39,000  Level FlightAware
10:43PM 40.6440 -97.8850 77° East 441 507 39,000  Level FlightAware
10:44PM 40.6620 -97.7730 78° East 438 504 39,000  Level FlightAware
10:45PM 40.6780 -97.6760 78° East 437 503 39,000  Level FlightAware
10:45PM 40.6930 -97.5860 78° East 437 503 39,000  Level FlightAware
10:46PM 40.7130 -97.4640 78° East 436 502 39,000  Level FlightAware
10:47PM 40.7320 -97.3500 78° East 435 501 39,000  Level FlightAware
10:47PM 40.7490 -97.2450 78° East 435 501 39,000  Level FlightAware
10:48PM 40.7680 -97.1300 78° East 434 499 39,000  Level FlightAware
10:49PM 40.7840 -97.0270 78° East 433 498 39,000  Level FlightAware
10:49PM 40.7980 -96.9340 79° East 433 498 39,000  Level FlightAware
10:50PM 40.8150 -96.8320 78° East 433 498 39,000  Level FlightAware
10:51PM 40.8330 -96.7170 78° East 433 498 39,000  Level FlightAware
10:51PM 40.8500 -96.6080 78° East 434 499 39,000  Level FlightAware
10:52PM 40.8670 -96.4980 78° East 435 501 39,000  Level FlightAware
10:53PM 40.8840 -96.3900 78° East 436 502 39,000  Level FlightAware
10:54PM 40.9000 -96.2850 79° East 438 504 39,000  Level FlightAware
10:54PM 40.9170 -96.1720 79° East 440 506 39,000  Level FlightAware
10:55PM 40.9330 -96.0660 79° East 442 509 39,000  Level FlightAware
10:56PM 40.9500 -95.9500 79° East 444 511 39,000  Level FlightAware
10:56PM 40.9660 -95.8440 79° East 445 512 39,000  Level FlightAware
10:57PM 40.9830 -95.7260 79° East 446 513 39,000  Level FlightAware
10:58PM 41.0000 -95.6120 79° East 447 514 39,000  Level FlightAware
10:59PM 41.0220 -95.4640 79° East 445 512 39,000  Level FlightAware
10:59PM 41.0370 -95.3570 79° East 443 510 39,000  Level FlightAware
11:00PM 41.0540 -95.2400 79° East 442 509 39,000  Level FlightAware
11:01PM 41.0710 -95.1220 79° East 441 507 39,000  Level FlightAware
11:02PM 41.0860 -95.0170 79° East 441 507 39,000  Level FlightAware
11:02PM 41.1000 -94.9110 80° East 441 507 39,000  Level FlightAware
11:03PM 41.1170 -94.7940 79° East 441 507 39,000  Level FlightAware
11:04PM 41.1330 -94.6770 80° East 442 509 39,000  Level FlightAware
11:04PM 41.1480 -94.5680 80° East 445 512 39,000  Level FlightAware
11:05PM 41.1640 -94.4520 80° East 450 518 39,000  Level FlightAware
11:06PM 41.1750 -94.3730 79° East 451 519 39,000  Level FlightAware
11:07PM 41.2020 -94.1740 80° East 452 520 39,000  Level FlightAware
11:07PM 41.2160 -94.0620 81° East 453 521 39,000  Level FlightAware
11:08PM 41.2270 -93.9760 80° East 453 521 39,000  Level FlightAware
11:09PM 41.2470 -93.8240 80° East 454 522 39,000  Level FlightAware
11:10PM 41.2600 -93.7170 81° East 454 522 39,000  Level FlightAware
11:10PM 41.2740 -93.6120 80° East 454 522 39,000  Level FlightAware
11:11PM 41.2910 -93.4810 80° East 454 522 39,000  Level FlightAware
11:12PM 41.3050 -93.3670 81° East 452 520 39,000  Level FlightAware
11:12PM 41.3190 -93.2520 81° East 452 520 39,000  Level FlightAware
11:13PM 41.3340 -93.1360 80° East 451 519 39,000  Level FlightAware
11:14PM 41.3480 -93.0180 81° East 450 518 39,000  Level FlightAware
11:14PM 41.3610 -92.9090 81° East 449 517 39,000  Level FlightAware
11:15PM 41.3760 -92.7880 81° East 448 516 39,000  Level FlightAware
11:16PM 41.3890 -92.6790 81° East 448 516 39,000  Level FlightAware
11:17PM 41.4040 -92.5560 81° East 448 516 39,000  Level FlightAware
11:17PM 41.4170 -92.4450 81° East 448 516 39,000  Level FlightAware
11:18PM 41.4270 -92.3520 82° East 448 516 39,000  Level FlightAware
11:19PM 41.4430 -92.2210 81° East 449 517 39,000  Level FlightAware
11:19PM 41.4570 -92.0970 81° East 450 518 39,000  Level FlightAware
11:20PM 41.4690 -91.9900 81° East 449 517 39,000  Level FlightAware
11:21PM 41.4830 -91.8680 81° East 451 519 39,000  Level FlightAware
11:21PM 41.4930 -91.7790 81° East 453 521 39,000  Level FlightAware
11:22PM 41.5070 -91.6540 81° East 454 522 39,000  Level FlightAware
11:23PM 41.5180 -91.5510 82° East 455 524 39,000  Level FlightAware
11:23PM 41.5300 -91.4380 82° East 457 526 39,000  Level FlightAware
11:24PM 41.5410 -91.3390 82° East 457 526 39,000  Level FlightAware
11:25PM 41.5540 -91.2110 82° East 457 526 39,000  Level FlightAware
11:25PM 41.5670 -91.0900 82° East 457 526 39,000  Level FlightAware
11:26PM 41.5840 -90.9770 79° East 456 525 39,000  Level FlightAware
11:27PM 41.6000 -90.8640 79° East 455 524 39,000  Level FlightAware
11:27PM 41.6150 -90.7570 79° East 453 521 39,000  Level FlightAware
11:28PM 41.6320 -90.6390 79° East 454 522 39,000  Level FlightAware
11:29PM 41.6480 -90.5300 79° East 455 524 39,000  Level FlightAware
11:30PM 41.6640 -90.4160 79° East 456 525 39,000  Level FlightAware
11:30PM 41.6790 -90.3110 79° East 457 526 39,000  Level FlightAware
11:31PM 41.6940 -90.1980 80° East 457 526 39,000  Level FlightAware
11:32PM 41.7090 -90.0890 80° East 458 527 39,000  Level FlightAware
11:32PM 41.7250 -89.9720 80° East 457 526 39,000  Level FlightAware
11:33PM 41.7410 -89.8540 80° East 457 526 39,000  Level FlightAware
11:34PM 41.7570 -89.7320 80° East 456 525 39,000  Level FlightAware
11:34PM 41.7720 -89.6200 80° East 457 526 39,000  Level FlightAware
11:35PM 41.7880 -89.4970 80° East 456 525 39,000  Level FlightAware
11:36PM 41.7990 -89.4150 80° East 454 522 39,000  Level FlightAware
11:36PM 41.8160 -89.2880 80° East 452 520 39,000  Level FlightAware
11:37PM 41.8300 -89.1790 80° East 450 518 39,000  Level FlightAware
11:38PM 41.8450 -89.0560 81° East 448 516 39,000  Level FlightAware
11:38PM 41.8590 -88.9450 80° East 447 514 39,000  Level FlightAware
11:39PM 41.8730 -88.8340 80° East 447 514 39,000  Level FlightAware
11:40PM 41.8880 -88.7170 80° East 449 517 39,000  Level FlightAware
11:40PM 41.8990 -88.6270 81° East 452 520 39,000  Level FlightAware
11:41PM 41.9130 -88.5150 80° East 453 521 39,000  Level FlightAware
11:42PM 41.9290 -88.3830 81° East 452 520 39,000  Level FlightAware
11:42PM 41.9390 -88.2970 81° East 452 520 39,000  Level FlightAware
11:43PM 41.9530 -88.1840 81° East 451 519 39,000  Level FlightAware
11:44PM 41.9680 -88.0520 81° East 451 519 39,000  Level FlightAware
11:44PM 41.9810 -87.9450 81° East 452 520 39,000  Level FlightAware
11:45PM 41.9950 -87.8300 81° East 454 522 39,000  Level FlightAware
11:46PM 42.0080 -87.7120 82° East 455 524 39,000  Level FlightAware
11:47PM 42.0200 -87.6050 81° East 455 524 39,000  Level FlightAware
11:47PM 42.0350 -87.4750 81° East 454 522 39,000  Level FlightAware
11:48PM 42.0480 -87.3550 82° East 453 521 39,000  Level FlightAware
11:49PM 42.0610 -87.2430 81° East 452 520 39,000  Level FlightAware
11:49PM 42.0740 -87.1230 82° East 451 519 39,000  Level FlightAware
11:50PM 42.0870 -87.0100 81° East 451 519 39,000  Level FlightAware
11:51PM 42.1000 -86.8890 82° East 453 521 39,000  Level FlightAware
11:51PM 42.1100 -86.7930 82° East 455 524 39,000  Level FlightAware
11:52PM 42.1220 -86.6830 82° East 455 524 39,000  Level FlightAware
11:53PM 42.1350 -86.5570 82° East 456 525 39,000  Level FlightAware
11:53PM 42.1470 -86.4450 82° East 457 526 39,000  Level FlightAware
11:54PM 42.1590 -86.3220 82° East 458 527 39,000  Level FlightAware
11:55PM 42.1710 -86.2020 82° East 459 528 39,000  Level FlightAware
11:56PM 42.1830 -86.0880 82° East 460 529 39,000  Level FlightAware
11:56PM 42.1940 -85.9740 83° East 462 532 39,000  Level FlightAware
11:57PM 42.2040 -85.8730 82° East 462 532 39,000  Level FlightAware
11:58PM 42.2160 -85.7490 83° East 464 534 39,000  Level FlightAware
11:58PM 42.2270 -85.6330 83° East 465 535 39,000  Level FlightAware
11:59PM 42.2380 -85.5240 82° East 466 536 39,000  Level FlightAware
12:00AM 42.2490 -85.4080 83° East 466 536 39,000  Level FlightAware
12:00AM 42.2600 -85.2970 82° East 467 537 39,000  Level FlightAware
12:01AM 42.2730 -85.1580 83° East 467 537 39,000  Level FlightAware
12:02AM 42.2830 -85.0380 84° East 466 536 39,000  Level FlightAware
12:02AM 42.2930 -84.9250 83° East 464 534 39,000  Level FlightAware
12:03AM 42.3040 -84.8010 83° East 463 533 39,000  Level FlightAware
12:04AM 42.3150 -84.6800 83° East 463 533 39,000  Level FlightAware
12:04AM 42.3260 -84.5540 83° East 462 532 39,000  Level FlightAware
12:05AM 42.3360 -84.4450 83° East 461 531 39,000  Level FlightAware
12:06AM 42.3460 -84.3170 84° East 464 534 39,000  Level FlightAware
12:07AM 42.3560 -84.1990 83° East 463 533 39,000  Level FlightAware
12:07AM 42.3660 -84.0810 83° East 464 534 39,000  Level FlightAware
12:08AM 42.3760 -83.9600 84° East 464 534 39,000  Level FlightAware
12:09AM 42.3860 -83.8320 84° East 465 535 39,000  Level FlightAware
12:09AM 42.3960 -83.7100 84° East 466 536 39,000  Level FlightAware
12:10AM 42.4050 -83.5930 84° East 466 536 39,000  Level FlightAware
12:11AM 42.4120 -83.5010 84° East 466 536 39,000  Level FlightAware
12:11AM 42.4230 -83.3640 84° East 468 539 39,000  Level FlightAware
12:12AM 42.4310 -83.2480 85° East 471 542 39,000  Level FlightAware
12:13AM 42.4390 -83.1410 84° East 474 545 39,000  Level FlightAware
12:13AM 42.4480 -83.0280 84° East 478 550 39,000  Level FlightAware
12:14AM 42.4570 -82.8960 85° East 482 555 39,000  Level FlightAware
12:15AM 42.4660 -82.7750 84° East 485 558 39,000  Level FlightAware
12:15AM 42.4760 -82.6360 84° East 489 563 39,000  Level FlightAware
12:16AM 42.4840 -82.5150 85° East 492 566 39,000  Level FlightAware
12:17AM 42.4920 -82.3950 85° East 493 567 39,000  Level FlightAware
12:18AM 42.5010 -82.2660 85° East 496 571 39,000  Level FlightAware
12:18AM 42.5090 -82.1360 85° East 499 574 39,000  Level FlightAware
12:19AM 42.5180 -81.9970 85° East 498 573 39,000  Level FlightAware
12:20AM 42.5250 -81.8950 85° East 498 573 39,000  Level FlightAware
12:20AM 42.5330 -81.7680 85° East 496 571 39,000  Level FlightAware
12:21AM 42.5400 -81.6380 86° East 497 572 39,000  Level FlightAware
12:22AM 42.5480 -81.5190 85° East 501 577 39,000  Level FlightAware
12:22AM 42.5570 -81.3670 85° East 498 573 39,000  Level FlightAware
12:23AM 42.5640 -81.2370 86° East 498 573 39,000  Level FlightAware
12:24AM 42.5710 -81.1120 86° East 499 574 39,000  Level FlightAware
12:25AM 42.5790 -80.9730 85° East 498 573 39,000  Level FlightAware
12:25AM 42.5860 -80.8400 86° East 499 574 39,000  Level FlightAware
12:26AM 42.5940 -80.6980 86° East 499 574 39,000  Level FlightAware
12:27AM 42.5990 -80.5890 86° East 499 574 39,000  Level FlightAware
12:27AM 42.6060 -80.4470 86° East 500 575 39,000  Level FlightAware
12:28AM 42.6120 -80.3430 85° East 501 577 39,000  Level FlightAware
12:29AM 42.6190 -80.1860 86° East 502 578 39,000  Level FlightAware
12:29AM 42.6260 -80.0540 86° East 503 579 39,000  Level FlightAware
12:30AM 42.6310 -79.9360 87° East 504 580 39,000  Level FlightAware
12:31AM 42.6370 -79.8070 86° East 505 581 39,000  Level FlightAware
12:31AM 42.6420 -79.7000 86° East 506 582 39,000  Level FlightAware
12:32AM 42.6490 -79.5210 87° East 506 582 39,000  Level FlightAware
12:33AM 42.6550 -79.3890 86° East 507 583 39,000  Level FlightAware
12:33AM 42.6590 -79.2760 87° East 508 585 39,000  Level FlightAware
12:34AM 42.6650 -79.1420 86° East 509 586 39,000  Level FlightAware
12:35AM 42.6700 -79.0070 87° East 510 587 39,000  Level FlightAware
12:35AM 42.6750 -78.8790 87° East 510 587 39,000  Level FlightAware
12:36AM 42.6800 -78.7310 87° East 510 587 39,000  Level FlightAware
12:37AM 42.6840 -78.6130 87° East 507 583 39,000  Level FlightAware
12:38AM 42.6880 -78.4740 88° East 504 580 39,000  Level FlightAware
12:38AM 42.6930 -78.3450 87° East 501 577 39,000 -120 Level FlightAware
12:39AM 42.6970 -78.2220 87° East 500 575 38,900 -1,080 Descending FlightAware
12:40AM 42.7010 -78.0760 88° East 508 585 37,500 -1,680 Descending FlightAware
12:40AM 42.7040 -77.9580 88° East 507 583 36,600 -1,680 Descending FlightAware
12:41AM 42.7080 -77.8080 88° East 503 579 35,200 -2,220 Descending FlightAware
12:42AM 42.7120 -77.6820 87° East 503 579 33,400 -2,760 Descending FlightAware
12:43AM 42.7150 -77.5200 89° East 502 578 31,100 -2,580 Descending FlightAware
12:43AM 42.7180 -77.3960 88° East 490 564 29,500 -2,400 Descending FlightAware
12:44AM 42.7210 -77.2630 88° East 475 547 27,800 -2,400 Descending FlightAware
12:45AM 42.7240 -77.1440 88° East 462 532 26,200 -1,800 Descending FlightAware
12:45AM 42.7270 -77.0170 88° East 464 534 25,300 -900 Descending FlightAware
12:46AM 42.7290 -76.8980 89° East 465 535 25,000 -240 Descending FlightAware
12:47AM 42.7320 -76.7780 88° East 463 533 25,000  Level FlightAware
12:47AM 42.7340 -76.6730 88° East 461 531 25,000  Level FlightAware
12:48AM 42.7360 -76.5600 89° East 463 533 25,000  Level FlightAware
12:49AM 42.7380 -76.4350 89° East 465 535 25,000  Level FlightAware
12:49AM 42.7390 -76.3290 89° East 465 535 25,000  Level FlightAware
12:50AM 42.7410 -76.2030 89° East 466 536 25,000  Level FlightAware
12:51AM 42.7420 -76.0800 89° East 467 537 25,000  Level FlightAware
12:51AM 42.7430 -75.9840 89° East 467 537 25,000  Level FlightAware
12:52AM 42.7450 -75.8670 89° East 469 540 25,000  Level FlightAware
12:53AM 42.7460 -75.7320 89° East 469 540 25,000  Level FlightAware
12:53AM 42.7470 -75.6170 89° East 470 541 25,000  Level FlightAware
12:54AM 42.7480 -75.4930 89° East 470 541 25,000 -240 Level FlightAware
12:55AM 42.7450 -75.3620 92° East 467 537 24,700 -1,320 Descending FlightAware
12:55AM 42.7420 -75.2530 92° East 457 526 23,200 -2,580 Descending FlightAware
12:56AM 42.7400 -75.1400 91° East 447 514 21,400 -2,700 Descending FlightAware
12:57AM 42.7370 -75.0320 92° East 438 504 19,700 -2,280 Descending FlightAware
12:57AM 42.7400 -74.9180 88° East 418 481 18,400 -2,460 Descending FlightAware
12:58AM 42.7420 -74.8060 89° East 417 480 16,200 -3,120 Descending FlightAware
12:59AM 42.7450 -74.6900 88° East 417 480 13,900 -2,040 Descending FlightAware
01:00AM 42.7480 -74.5880 88° East 407 468 13,300 -480 Descending FlightAware
01:00AM 42.7500 -74.5100 88° East 407 468 13,300 -1,860 Level FlightAware
01:02AM 42.7033 -74.3472 88° East 297 342 9,700 -2,280 Descending Boston Center
01:03AM 42.6758 -74.2389 109° East 288 331 8,000 -1,740 Descending Boston Center
01:04AM 42.6442 -74.1281 111° Southeast 291 335 6,200 -1,620 Descending Boston Center
01:05AM 42.6186 -74.0314 110° East 284 327 4,800 -1,260 Descending Boston Center
01:06AM 42.5906 -73.9319 111° Southeast 276 318 3,700 -900 Descending Boston Center
01:07AM 42.5750 -73.8525 105° East 258 297 3,000 -900 Descending Boston Center
01:08AM 42.6089 -73.8025 47° Northeast 207 238 2,000 -780 Descending Boston Center
01:09AM 42.6714 -73.8039 359° North 185 213 1,500 -660 Descending Boston Center
01:10AM 42.7172 -73.8050 359° North 162 186 700 -840 Descending Boston Center
01:13AM 42.7333 -73.8000 North  Level FlightAware Approximate
01:20AM 42.7491 -73.8020 North  Level Estimated